Time;durP1;ratioP1;P1;durP2;ratioP2;P2;SDS_P1;SDS_P2;PMS_P1;PMS_P2;Temp;Humidity;BMP_temperature;BMP_pressure;BME280_temperature;BME280_humidity;BME280_pressure;Samples;Min_cycle;Max_cycle;Signal;HPM_P1;HPM_P2
2022/07/31 00:00:39;;;;;;;7.60;3.75;;;21.90;99.90;;;;;;5061931;28;20071;-64
2022/07/31 00:03:06;;;;;;;3.40;2.55;;;22.00;99.90;;;;;;5079278;28;20028;-66
2022/07/31 00:05:32;;;;;;;7.00;3.70;;;21.90;99.90;;;;;;5078592;28;20442;-65
2022/07/31 00:07:58;;;;;;;4.20;2.88;;;21.90;99.90;;;;;;5079190;28;20025;-65
2022/07/31 00:10:24;;;;;;;8.15;3.80;;;21.80;99.90;;;;;;5079161;28;20032;-68
2022/07/31 00:12:50;;;;;;;9.80;4.10;;;21.60;99.90;;;;;;5079132;28;20024;-65
2022/07/31 00:15:16;;;;;;;5.68;3.80;;;21.40;99.90;;;;;;5078363;28;20025;-66
2022/07/31 00:17:43;;;;;;;6.70;3.58;;;21.30;99.90;;;;;;5079001;28;20024;-65
2022/07/31 00:20:14;;;;;;;6.75;3.20;;;21.40;99.90;;;;;;5078309;28;20335;-67
2022/07/31 00:22:41;;;;;;;5.85;3.53;;;21.40;99.90;;;;;;5078360;28;20040;-63
2022/07/31 00:25:08;;;;;;;6.55;3.92;;;21.40;99.90;;;;;;5078031;28;20441;-64
2022/07/31 00:27:34;;;;;;;7.45;3.65;;;21.40;99.90;;;;;;5078859;28;20090;-64
2022/07/31 00:30:00;;;;;;;5.38;3.70;;;21.30;99.90;;;;;;5078737;28;20024;-65
2022/07/31 00:32:25;;;;;;;7.13;3.78;;;21.30;99.90;;;;;;5079056;28;20094;-65
2022/07/31 00:34:51;;;;;;;9.60;4.03;;;21.30;99.90;;;;;;5078687;28;20033;-64
2022/07/31 00:37:17;;;;;;;7.72;3.50;;;21.40;99.90;;;;;;5078658;28;20399;-64
2022/07/31 00:39:43;;;;;;;9.43;4.35;;;21.20;99.90;;;;;;5078455;28;20032;-64
2022/07/31 00:42:23;;;;;;;4.85;3.70;;;21.00;99.90;;;;;;5078786;28;20048;-64
2022/07/31 00:44:50;;;;;;;10.35;3.70;;;21.00;99.90;;;;;;5077728;28;20051;-64
2022/07/31 00:47:17;;;;;;;5.32;3.65;;;21.10;99.90;;;;;;5077817;28;20036;-64
2022/07/31 00:49:43;;;;;;;3.80;3.15;;;21.00;99.90;;;;;;5077622;28;20418;-64
2022/07/31 00:52:09;;;;;;;5.00;3.00;;;20.90;99.90;;;;;;5078372;28;20348;-64
2022/07/31 00:54:35;;;;;;;5.47;3.33;;;20.90;99.90;;;;;;5078318;28;20060;-64
2022/07/31 00:57:02;;;;;;;3.42;2.65;;;20.90;99.90;;;;;;5078139;28;20392;-64
2022/07/31 00:59:28;;;;;;;4.65;3.00;;;20.80;99.90;;;;;;5078156;28;20132;-64
2022/07/31 01:01:55;;;;;;;3.55;2.50;;;20.70;99.90;;;;;;5077438;28;20075;-64
2022/07/31 01:04:22;;;;;;;5.35;2.28;;;20.70;99.90;;;;;;5078090;28;20037;-64
2022/07/31 01:06:48;;;;;;;5.53;2.47;;;20.70;99.90;;;;;;5077343;28;20304;-64
2022/07/31 01:09:15;;;;;;;3.55;2.05;;;20.70;99.90;;;;;;5077240;28;20032;-64
2022/07/31 01:11:59;;;;;;;3.25;1.95;;;20.70;99.90;;;;;;5077604;28;20282;-64
2022/07/31 01:14:34;;;;;;;2.30;2.10;;;20.80;99.90;;;;;;5078115;28;20056;-64
2022/07/31 01:17:01;;;;;;;2.90;1.90;;;20.80;99.90;;;;;;5077112;28;20028;-65
2022/07/31 01:19:40;;;;;;;3.58;1.88;;;20.80;99.90;;;;;;5076909;28;20028;-64
2022/07/31 01:22:21;;;;;;;4.35;2.00;;;20.80;99.90;;;;;;5076977;28;20028;-64
2022/07/31 01:25:41;;;;;;;2.65;1.75;;;20.80;99.90;;;;;;5076925;28;20021;-64
2022/07/31 01:28:36;;;;;;;2.88;2.00;;;20.50;99.90;;;;;;5045238;28;20032;-64
2022/07/31 01:31:18;;;;;;;2.95;1.85;;;20.50;99.90;;;;;;5077026;28;20040;-64
2022/07/31 01:33:50;;;;;;;2.88;1.60;;;20.50;99.90;;;;;;5077532;28;20170;-63
2022/07/31 01:36:20;;;;;;;3.17;1.85;;;20.40;99.90;;;;;;5076681;28;20047;-64
2022/07/31 01:38:50;;;;;;;3.20;1.85;;;20.50;99.90;;;;;;5076624;28;20097;-65
2022/07/31 01:41:20;;;;;;;3.05;2.00;;;20.50;99.90;;;;;;5076601;28;20025;-64
2022/07/31 01:43:49;;;;;;;3.05;1.90;;;20.50;99.90;;;;;;5077329;28;20038;-64
2022/07/31 01:46:19;;;;;;;3.63;2.17;;;20.20;99.90;;;;;;5076487;28;20059;-64
2022/07/31 01:48:47;;;;;;;3.45;1.75;;;20.20;99.90;;;;;;5059898;28;20152;-64
2022/07/31 01:51:15;;;;;;;5.22;2.10;;;20.20;99.90;;;;;;5076500;28;20333;-64
2022/07/31 01:53:44;;;;;;;3.50;1.77;;;20.20;99.90;;;;;;5077164;28;20093;-64
2022/07/31 01:56:10;;;;;;;3.80;1.80;;;20.20;99.90;;;;;;5077458;28;20055;-65
2022/07/31 01:58:38;;;;;;;2.30;1.75;;;20.20;99.90;;;;;;5076117;28;20106;-65
2022/07/31 02:01:20;;;;;;;3.22;2.20;;;20.20;99.90;;;;;;5061853;28;20097;-64
2022/07/31 02:03:47;;;;;;;2.47;1.60;;;20.30;99.90;;;;;;5076327;28;20082;-64
2022/07/31 02:06:15;;;;;;;2.38;1.70;;;20.30;99.90;;;;;;5076264;28;20094;-64
2022/07/31 02:08:45;;;;;;;4.10;1.70;;;20.00;99.90;;;;;;5076221;28;20305;-64
2022/07/31 02:11:14;;;;;;;3.78;1.70;;;19.90;99.90;;;;;;5076347;28;20033;-64
2022/07/31 02:13:41;;;;;;;4.78;1.90;;;19.80;99.90;;;;;;5059826;28;20052;-64
2022/07/31 02:16:07;;;;;;;1.92;1.73;;;19.80;99.90;;;;;;5076917;28;20028;-63
2022/07/31 02:18:35;;;;;;;2.30;1.92;;;19.90;99.90;;;;;;5076054;28;20093;-64
2022/07/31 02:21:24;;;;;;;3.67;1.88;;;19.70;99.90;;;;;;5062290;28;20039;-63
2022/07/31 02:23:51;;;;;;;2.15;1.75;;;19.70;99.90;;;;;;5059343;28;20031;-63
2022/07/31 02:26:17;;;;;;;2.53;1.90;;;19.60;99.90;;;;;;5059577;28;20075;-64
2022/07/31 02:28:44;;;;;;;2.33;1.55;;;19.70;99.90;;;;;;5059319;28;20024;-64
2022/07/31 02:31:13;;;;;;;3.25;1.92;;;19.70;99.90;;;;;;5076732;28;20421;-63
2022/07/31 02:33:45;;;;;;;2.75;1.70;;;19.60;99.90;;;;;;5075969;28;20491;-64
2022/07/31 02:36:13;;;;;;;4.05;2.00;;;19.60;99.90;;;;;;5076032;28;20417;-63
2022/07/31 02:38:41;;;;;;;2.60;2.05;;;19.60;99.90;;;;;;5075837;28;20024;-64
2022/07/31 02:41:10;;;;;;;2.28;1.70;;;19.50;99.90;;;;;;5075928;28;20039;-64
2022/07/31 02:43:37;;;;;;;4.45;1.65;;;19.60;99.90;;;;;;5075917;28;20108;-63
2022/07/31 02:46:18;;;;;;;;;;;19.50;99.90;;;;;;5076392;28;20025;-63
2022/07/31 02:48:45;;;;;;;2.50;1.80;;;19.50;99.90;;;;;;5078733;28;19923;-64
2022/07/31 02:51:12;;;;;;;2.50;1.63;;;19.50;99.90;;;;;;5079899;28;20056;-64
2022/07/31 02:53:40;;;;;;;3.67;1.73;;;19.50;99.90;;;;;;5080620;28;20025;-64
2022/07/31 02:56:08;;;;;;;4.05;1.58;;;19.40;99.90;;;;;;5079718;28;20036;-64
2022/07/31 02:58:42;;;;;;;2.85;1.63;;;19.40;99.90;;;;;;5079546;28;20048;-63
2022/07/31 03:01:16;;;;;;;2.00;1.70;;;19.50;99.90;;;;;;5080005;28;20066;-64
2022/07/31 03:03:42;;;;;;;2.97;1.70;;;19.60;99.90;;;;;;5079700;28;20025;-63
2022/07/31 03:06:09;;;;;;;3.90;1.85;;;19.60;99.90;;;;;;5079563;28;20021;-63
2022/07/31 03:08:36;;;;;;;3.67;1.80;;;19.60;99.90;;;;;;5063122;28;20028;-63
2022/07/31 03:11:03;;;;;;;3.97;1.75;;;19.40;99.90;;;;;;5079505;28;20127;-63
2022/07/31 03:13:32;;;;;;;2.58;1.67;;;19.40;99.90;;;;;;5079391;28;20103;-64
2022/07/31 03:15:58;;;;;;;3.95;1.80;;;19.30;99.90;;;;;;5079420;28;20389;-63
2022/07/31 03:18:26;;;;;;;2.88;1.95;;;19.10;99.90;;;;;;5079423;28;20060;-64
2022/07/31 03:20:53;;;;;;;3.72;1.60;;;19.20;99.90;;;;;;5079443;28;20035;-64
2022/07/31 03:23:22;;;;;;;3.83;1.55;;;19.20;99.90;;;;;;5079278;28;20393;-64
2022/07/31 03:25:57;;;;;;;2.70;1.60;;;19.20;99.90;;;;;;5079236;28;20353;-63
2022/07/31 03:28:23;;;;;;;2.25;1.70;;;19.10;99.90;;;;;;5062529;28;20032;-63
2022/07/31 03:30:52;;;;;;;2.65;1.90;;;19.10;99.90;;;;;;5079056;28;20112;-63
2022/07/31 03:33:18;;;;;;;1.98;1.75;;;19.10;99.90;;;;;;5062583;28;20047;-63
2022/07/31 03:35:45;;;;;;;2.75;1.77;;;19.10;99.90;;;;;;5078993;28;20036;-63
2022/07/31 03:38:11;;;;;;;2.78;1.90;;;19.10;99.90;;;;;;5078896;28;20123;-63
2022/07/31 03:40:40;;;;;;;2.72;1.80;;;19.10;99.90;;;;;;5078873;28;20029;-63
2022/07/31 03:43:06;;;;;;;2.92;2.05;;;19.20;99.90;;;;;;5079142;28;20124;-64
2022/07/31 03:45:37;;;;;;;2.65;2.13;;;19.30;99.90;;;;;;5062246;28;20052;-65
2022/07/31 03:48:05;;;;;;;3.83;2.30;;;19.40;99.90;;;;;;5079159;28;20028;-64
2022/07/31 03:50:31;;;;;;;3.70;2.20;;;19.30;99.90;;;;;;5045680;28;20024;-63
2022/07/31 03:52:57;;;;;;;4.18;2.03;;;19.20;99.90;;;;;;5079431;28;20020;-64
2022/07/31 03:55:24;;;;;;;5.18;2.55;;;19.20;99.90;;;;;;5078791;28;20281;-65
2022/07/31 03:57:51;;;;;;;2.83;2.20;;;19.20;99.90;;;;;;5078572;28;20044;-64
2022/07/31 04:00:19;;;;;;;3.92;2.50;;;19.10;99.90;;;;;;5077159;28;20036;-66
2022/07/31 04:02:45;;;;;;;2.38;1.92;;;19.10;99.90;;;;;;5078474;28;20316;-64
2022/07/31 04:05:31;;;;;;;2.55;2.10;;;19.10;99.90;;;;;;5078561;28;20032;-64
2022/07/31 04:07:57;;;;;;;2.70;2.03;;;19.10;99.90;;;;;;5079637;28;20131;-64
2022/07/31 04:10:23;;;;;;;5.63;2.20;;;19.10;99.90;;;;;;5061921;28;20071;-64
2022/07/31 04:12:48;;;;;;;4.55;2.50;;;19.10;99.90;;;;;;5079479;28;20412;-64
2022/07/31 04:15:14;;;;;;;4.97;2.05;;;18.90;99.90;;;;;;5078844;28;20037;-64
2022/07/31 04:17:40;;;;;;;3.22;2.22;;;19.00;99.90;;;;;;5045004;28;20032;-64
2022/07/31 04:20:09;;;;;;;3.88;2.17;;;18.90;99.90;;;;;;5078059;28;20071;-64
2022/07/31 04:22:35;;;;;;;3.17;2.10;;;19.00;99.90;;;;;;5078972;28;20039;-64
2022/07/31 04:25:05;;;;;;;3.95;2.40;;;19.20;99.90;;;;;;5078229;28;20036;-64
2022/07/31 04:27:54;;;;;;;2.83;2.10;;;19.20;99.90;;;;;;5078877;28;20025;-64
2022/07/31 04:30:20;;;;;;;4.70;2.33;;;19.10;99.90;;;;;;5061555;28;20040;-63
2022/07/31 04:32:46;;;;;;;3.38;2.10;;;19.00;99.90;;;;;;5078280;28;20050;-63
2022/07/31 04:35:16;;;;;;;4.82;2.17;;;19.00;99.90;;;;;;5061858;28;20029;-65
2022/07/31 04:37:42;;;;;;;5.00;2.42;;;18.90;99.90;;;;;;5077771;28;20388;-63
2022/07/31 04:40:09;;;;;;;3.40;2.20;;;18.90;99.90;;;;;;5061156;28;20339;-64
2022/07/31 04:42:35;;;;;;;2.15;1.95;;;18.90;99.90;;;;;;5077848;28;20040;-64
2022/07/31 04:45:01;;;;;;;3.47;2.20;;;19.00;99.90;;;;;;5061037;28;20028;-63
2022/07/31 04:47:27;;;;;;;2.88;2.35;;;19.10;99.90;;;;;;5077697;28;20025;-63
2022/07/31 04:49:53;;;;;;;2.85;2.20;;;19.00;99.90;;;;;;5060864;28;20090;-63
2022/07/31 04:52:19;;;;;;;3.72;2.70;;;18.90;99.90;;;;;;5077498;28;20435;-64
2022/07/31 04:54:47;;;;;;;4.43;2.40;;;18.80;99.90;;;;;;5061151;28;20024;-64
2022/07/31 04:57:14;;;;;;;3.70;2.53;;;19.00;99.90;;;;;;5060832;28;20052;-64
2022/07/31 04:59:41;;;;;;;4.30;2.13;;;19.10;99.90;;;;;;5078226;28;20041;-64
2022/07/31 05:02:07;;;;;;;2.95;2.35;;;19.20;99.90;;;;;;5078091;28;20033;-65
2022/07/31 05:04:33;;;;;;;3.17;2.03;;;19.30;99.90;;;;;;5077337;28;20362;-65
2022/07/31 05:06:59;;;;;;;3.92;2.03;;;19.30;99.90;;;;;;5077578;28;20047;-65
2022/07/31 05:09:28;;;;;;;4.18;2.53;;;19.30;99.90;;;;;;5078244;28;20036;-63
2022/07/31 05:11:58;;;;;;;3.20;2.05;;;19.30;99.90;;;;;;5076755;28;20024;-63
2022/07/31 05:14:24;;;;;;;2.67;2.10;;;19.20;99.90;;;;;;5077004;28;20028;-64
2022/07/31 05:16:51;;;;;;;3.42;2.42;;;19.20;99.90;;;;;;5077025;28;20324;-64
2022/07/31 05:19:17;;;;;;;3.83;2.45;;;19.30;99.90;;;;;;5076889;28;20421;-64
2022/07/31 05:21:45;;;;;;;5.18;2.20;;;19.10;99.90;;;;;;5077050;28;20033;-63
2022/07/31 05:24:21;;;;;;;2.72;2.00;;;19.20;99.90;;;;;;5078169;28;20078;-63
2022/07/31 05:26:54;;;;;;;3.55;2.13;;;19.20;99.90;;;;;;5076891;28;20021;-63
2022/07/31 05:29:20;;;;;;;3.20;1.92;;;19.40;99.90;;;;;;5060153;28;20105;-64
2022/07/31 05:31:46;;;;;;;4.78;2.20;;;19.40;99.90;;;;;;5077448;28;20037;-64
2022/07/31 05:34:11;;;;;;;3.92;2.03;;;19.50;99.90;;;;;;5060104;28;20025;-64
2022/07/31 05:36:38;;;;;;;2.60;2.10;;;19.30;99.90;;;;;;5027367;28;20118;-63
2022/07/31 05:39:04;;;;;;;2.47;1.90;;;19.30;99.90;;;;;;5076490;28;20055;-64
2022/07/31 05:41:39;;;;;;;3.78;1.90;;;19.30;99.90;;;;;;5077672;28;20039;-63
2022/07/31 05:44:23;;;;;;;4.22;2.45;;;19.60;99.90;;;;;;5077595;28;20055;-63
2022/07/31 05:46:49;;;;;;;2.67;2.00;;;19.60;99.90;;;;;;5076467;28;20390;-64
2022/07/31 05:49:16;;;;;;;2.90;2.10;;;19.40;99.90;;;;;;5076384;28;20040;-64
2022/07/31 05:51:45;;;;;;;3.13;2.08;;;19.30;99.90;;;;;;5076356;28;20043;-63
2022/07/31 05:54:11;;;;;;;3.58;1.98;;;19.40;99.90;;;;;;5076345;28;20037;-64
2022/07/31 05:56:56;;;;;;;2.97;2.40;;;19.50;99.90;;;;;;5076786;28;20109;-64
2022/07/31 05:59:31;;;;;;;2.83;2.15;;;19.40;99.90;;;;;;5060965;28;20035;-63
2022/07/31 06:01:57;;;;;;;5.97;2.85;;;19.50;99.90;;;;;;5043178;28;20055;-64
2022/07/31 06:04:25;;;;;;;4.65;2.15;;;19.30;99.90;;;;;;5076243;28;20024;-64
2022/07/31 06:06:52;;;;;;;5.40;2.72;;;19.30;99.90;;;;;;5076543;28;20083;-63
2022/07/31 06:09:18;;;;;;;2.92;2.03;;;19.50;99.90;;;;;;5077215;28;20044;-63
2022/07/31 06:11:45;;;;;;;3.90;2.63;;;19.70;99.90;;;;;;5059544;28;20115;-62
2022/07/31 06:14:11;;;;;;;4.20;2.75;;;20.10;99.90;;;;;;5076166;28;20082;-63
2022/07/31 06:16:55;;;;;;;4.03;2.70;;;19.80;99.90;;;;;;5077224;28;20048;-64
2022/07/31 06:19:21;;;;;;;5.60;3.08;;;19.70;99.90;;;;;;5075960;28;20102;-63
2022/07/31 06:21:47;;;;;;;4.80;3.00;;;19.70;99.90;;;;;;5076390;28;20024;-63
2022/07/31 06:24:14;;;;;;;7.47;2.80;;;19.70;99.90;;;;;;5075777;28;20029;-62
2022/07/31 06:26:42;;;;;;;3.78;2.90;;;19.80;99.90;;;;;;5059954;28;20035;-64
2022/07/31 06:29:08;;;;;;;6.00;3.55;;;20.00;99.90;;;;;;5076707;28;20282;-63
2022/07/31 06:31:34;;;;;;;7.30;3.42;;;19.90;99.90;;;;;;5059277;28;20063;-63
2022/07/31 06:34:00;;;;;;;5.35;3.53;;;19.80;99.90;;;;;;5059315;28;20037;-64
2022/07/31 06:36:34;;;;;;;5.85;2.75;;;19.70;99.90;;;;;;5076206;28;20312;-63
2022/07/31 06:39:02;;;;;;;4.15;3.40;;;19.70;99.90;;;;;;5075820;28;20361;-64
2022/07/31 06:41:43;;;;;;;4.85;3.55;;;19.70;99.90;;;;;;5075982;28;20089;-63
2022/07/31 06:44:27;;;;;;;4.05;3.13;;;19.70;99.90;;;;;;5064222;28;20123;-64
2022/07/31 06:47:24;;;;;;;4.57;3.30;;;19.90;99.90;;;;;;5083610;28;20033;-64
2022/07/31 06:50:04;;;;;;;6.25;3.97;;;20.00;99.90;;;;;;5061068;28;20419;-64
2022/07/31 06:52:46;;;;;;;5.18;4.10;;;20.10;99.90;;;;;;5075747;28;20064;-65
2022/07/31 06:55:12;;;;;;;5.72;3.67;;;20.30;99.90;;;;;;5059054;28;20067;-64
2022/07/31 06:57:39;;;;;;;5.20;4.00;;;20.50;99.90;;;;;;5058952;28;20076;-64
2022/07/31 07:00:07;;;;;;;5.88;3.92;;;20.30;99.90;;;;;;5058859;28;20438;-63
2022/07/31 07:02:35;;;;;;;6.30;4.20;;;20.30;99.90;;;;;;5075631;28;20331;-63
2022/07/31 07:05:01;;;;;;;5.25;3.80;;;20.40;99.90;;;;;;5042520;28;20123;-63
2022/07/31 07:07:26;;;;;;;5.65;4.13;;;20.40;99.90;;;;;;5075734;28;20107;-63
2022/07/31 07:09:55;;;;;;;5.30;3.80;;;20.30;99.90;;;;;;5075649;28;20347;-63
2022/07/31 07:12:41;;;;;;;7.07;3.92;;;20.10;99.90;;;;;;5075704;28;20278;-65
2022/07/31 07:15:08;;;;;;;5.18;3.70;;;20.40;99.90;;;;;;5075573;28;20036;-64
2022/07/31 07:17:34;;;;;;;6.40;3.88;;;20.60;99.90;;;;;;5076383;28;20044;-63
2022/07/31 07:20:00;;;;;;;6.28;3.60;;;20.70;99.90;;;;;;5059006;28;20324;-63
2022/07/31 07:22:26;;;;;;;4.72;3.83;;;21.00;99.90;;;;;;5042251;28;20033;-63
2022/07/31 07:24:52;;;;;;;5.55;3.50;;;21.10;99.90;;;;;;5075432;28;20081;-62
2022/07/31 07:27:21;;;;;;;5.10;3.45;;;21.00;99.90;;;;;;5075451;28;20143;-62
2022/07/31 07:29:47;;;;;;;5.47;3.45;;;21.00;99.90;;;;;;5058809;28;20475;-62
2022/07/31 07:32:15;;;;;;;5.68;3.38;;;21.10;99.90;;;;;;5075506;28;20032;-63
2022/07/31 07:34:41;;;;;;;7.75;3.20;;;21.50;99.90;;;;;;5078621;28;20033;-64
2022/07/31 07:37:17;;;;;;;4.85;3.60;;;21.80;99.90;;;;;;5063922;28;20079;-62
2022/07/31 07:39:43;;;;;;;7.60;3.13;;;22.00;99.90;;;;;;5062339;28;20059;-64
2022/07/31 07:42:09;;;;;;;4.43;3.30;;;22.10;99.90;;;;;;5078947;28;20395;-65
2022/07/31 07:44:35;;;;;;;5.63;3.72;;;21.80;99.90;;;;;;5079076;28;20032;-64
2022/07/31 07:47:01;;;;;;;5.47;3.30;;;21.60;99.90;;;;;;5062312;28;20405;-64
2022/07/31 07:49:27;;;;;;;5.57;3.55;;;21.80;99.90;;;;;;5062329;28;20032;-63
2022/07/31 07:52:13;;;;;;;6.63;3.35;;;21.40;99.90;;;;;;5078897;28;20076;-63
2022/07/31 07:54:41;;;;;;;4.78;3.63;;;21.30;99.90;;;;;;5062425;28;20308;-63
2022/07/31 07:57:20;;;;;;;5.85;2.95;;;21.60;99.90;;;;;;5079698;28;20175;-62
2022/07/31 08:00:10;;;;;;;4.68;3.38;;;21.60;99.90;;;;;;5078843;28;20044;-64
2022/07/31 08:02:43;;;;;;;7.47;3.55;;;21.70;99.90;;;;;;5079397;28;20301;-63
2022/07/31 08:05:10;;;;;;;5.28;3.13;;;21.90;99.90;;;;;;5062003;28;20119;-65
2022/07/31 08:07:38;;;;;;;5.70;3.50;;;22.20;99.90;;;;;;5061979;28;20041;-66
2022/07/31 08:10:09;;;;;;;5.20;3.17;;;22.30;99.90;;;;;;5078554;28;20112;-64
2022/07/31 08:12:49;;;;;;;3.65;3.28;;;22.30;99.90;;;;;;5078688;28;20328;-64
2022/07/31 08:15:24;;;;;;;7.63;3.22;;;22.20;99.90;;;;;;5078404;28;20039;-66
2022/07/31 08:18:08;;;;;;;6.38;3.20;;;22.60;99.90;;;;;;5078238;28;20040;-65
2022/07/31 08:20:36;;;;;;;5.68;3.10;;;22.20;99.90;;;;;;5078444;28;20025;-66
2022/07/31 08:23:02;;;;;;;5.55;3.00;;;22.30;99.90;;;;;;5078016;28;20043;-67
2022/07/31 08:25:28;;;;;;;6.32;3.80;;;22.00;99.90;;;;;;5078301;28;20028;-66
2022/07/31 08:27:55;;;;;;;5.70;3.00;;;22.00;99.90;;;;;;5078251;28;20098;-67
2022/07/31 08:30:21;;;;;;;5.22;3.10;;;22.00;99.90;;;;;;5078221;28;20060;-66
2022/07/31 08:32:48;;;;;;;6.72;3.00;;;22.10;99.90;;;;;;5061498;28;20408;-65
2022/07/31 08:35:33;;;;;;;6.55;3.63;;;22.20;99.90;;;;;;5078109;28;20043;-65
2022/07/31 08:37:59;;;;;;;3.58;2.90;;;22.60;99.90;;;;;;5077888;28;20028;-64
2022/07/31 08:40:28;;;;;;;5.00;3.10;;;22.70;99.90;;;;;;5077559;28;20468;-68
2022/07/31 08:42:55;;;;;;;7.00;3.38;;;22.60;99.90;;;;;;5078034;28;20032;-64
2022/07/31 08:45:21;;;;;;;3.38;3.08;;;22.60;99.90;;;;;;5077060;28;20032;-63
2022/07/31 08:48:07;;;;;;;5.57;2.72;;;22.80;99.90;;;;;;5077823;28;20032;-64
2022/07/31 08:50:43;;;;;;;6.07;2.88;;;23.30;99.90;;;;;;5077962;28;20120;-65
2022/07/31 08:53:21;;;;;;;4.15;3.00;;;23.40;99.90;;;;;;5077574;28;20036;-64
2022/07/31 08:56:04;;;;;;;6.57;3.50;;;23.60;99.90;;;;;;5077558;28;20025;-64
2022/07/31 08:58:31;;;;;;;4.90;3.13;;;23.80;99.90;;;;;;5060731;28;20364;-63
2022/07/31 09:00:57;;;;;;;4.43;2.88;;;23.60;99.90;;;;;;5078364;28;20020;-62
2022/07/31 09:03:23;;;;;;;5.65;3.08;;;23.90;99.90;;;;;;5078419;28;20300;-65
2022/07/31 09:05:53;;;;;;;2.90;2.20;;;24.10;99.90;;;;;;5061433;28;20032;-63
2022/07/31 09:08:19;;;;;;;3.10;2.25;;;24.50;99.90;;;;;;5078008;28;20036;-61
2022/07/31 09:10:48;;;;;;;3.75;2.60;;;24.80;99.90;;;;;;5078132;28;20047;-63
2022/07/31 09:13:17;;;;;;;3.00;2.70;;;24.90;99.90;;;;;;5060546;28;20033;-65
2022/07/31 09:15:45;;;;;;;5.63;2.58;;;24.80;99.90;;;;;;5077170;28;20035;-62
2022/07/31 09:18:16;;;;;;;3.40;2.17;;;24.50;99.90;;;;;;5076967;28;20025;-65
2022/07/31 09:21:03;;;;;;;4.80;2.50;;;24.40;99.90;;;;;;5077084;28;20311;-66
2022/07/31 09:23:30;;;;;;;3.50;2.70;;;24.60;99.90;;;;;;5077795;28;20319;-63
2022/07/31 09:26:00;;;;;;;2.42;2.22;;;24.80;99.90;;;;;;5076933;28;20063;-60
2022/07/31 09:28:43;;;;;;;4.57;2.95;;;25.10;99.90;;;;;;5060261;28;20081;-62
2022/07/31 09:31:10;;;;;;;;;;;24.50;99.90;;;;;;5077314;28;20028;-62
2022/07/31 09:33:54;;;;;;;2.55;2.28;;;24.30;99.90;;;;;;5077656;28;19923;-62
2022/07/31 09:36:32;;;;;;;3.80;2.65;;;24.40;99.90;;;;;;5076969;28;20358;-61
2022/07/31 09:39:13;;;;;;;4.70;2.78;;;24.60;99.90;;;;;;5076584;28;20029;-62
2022/07/31 09:42:07;;;;;;;2.60;2.40;;;24.40;99.90;;;;;;5084356;28;20431;-64
2022/07/31 09:45:18;;;;;;;5.63;3.22;;;24.60;99.90;;;;;;5081974;28;20119;-66
2022/07/31 09:47:44;;;;;;;8.75;2.92;;;23.90;99.90;;;;;;5076574;28;20032;-64
2022/07/31 09:50:10;;;;;;;6.65;3.03;;;23.80;99.90;;;;;;5076621;28;20040;-63
2022/07/31 09:52:36;;;;;;;3.67;2.85;;;23.80;99.90;;;;;;5077290;28;20082;-63
2022/07/31 09:55:13;;;;;;;4.32;2.95;;;23.70;99.90;;;;;;5076458;28;20028;-62
2022/07/31 09:57:53;;;;;;;3.53;2.53;;;24.00;99.90;;;;;;5076256;28;20473;-63
2022/07/31 10:00:20;;;;;;;4.70;3.00;;;24.30;99.90;;;;;;5076430;28;20041;-62
2022/07/31 10:02:48;;;;;;;7.97;3.10;;;24.50;99.90;;;;;;5076277;28;20085;-62
2022/07/31 10:05:15;;;;;;;4.32;3.17;;;24.30;99.90;;;;;;5077034;28;20412;-61
2022/07/31 10:07:41;;;;;;;6.03;3.22;;;24.50;99.90;;;;;;5076263;28;20021;-62
2022/07/31 10:10:22;;;;;;;3.50;3.03;;;24.80;99.90;;;;;;5076309;28;20320;-61
2022/07/31 10:13:02;;;;;;;3.90;3.10;;;24.80;99.90;;;;;;5077282;28;20048;-64
2022/07/31 10:15:29;;;;;;;5.22;3.30;;;24.70;99.90;;;;;;5076234;28;20029;-62
2022/07/31 10:18:18;;;;;;;3.85;2.88;;;24.60;99.90;;;;;;5076920;28;20446;-64
2022/07/31 10:21:13;;;;;;;4.40;2.70;;;25.00;99.90;;;;;;5076953;28;20082;-63
2022/07/31 10:23:46;;;;;;;4.15;2.53;;;25.10;99.90;;;;;;5076969;28;20111;-63
2022/07/31 10:26:13;;;;;;;4.47;2.88;;;25.40;99.90;;;;;;5076416;28;20044;-61
2022/07/31 10:28:40;;;;;;;3.92;2.65;;;25.50;99.90;;;;;;5076024;28;20020;-63
2022/07/31 10:31:06;;;;;;;4.18;2.95;;;26.00;99.90;;;;;;5042994;28;20349;-63
2022/07/31 10:33:33;;;;;;;4.40;3.30;;;25.60;99.90;;;;;;5076048;28;20036;-64
2022/07/31 10:36:26;;;;;;;6.57;3.08;;;25.50;99.90;;;;;;5076380;28;20049;-59
2022/07/31 10:39:19;;;;;;;3.58;3.15;;;25.40;99.90;;;;;;5075930;28;20308;-60
2022/07/31 10:42:06;;;;;;;3.50;3.05;;;25.60;99.90;;;;;;5075937;28;20017;-62
2022/07/31 10:44:44;;;;;;;4.57;3.30;;;25.50;99.90;;;;;;5075922;28;20062;-61
2022/07/31 10:47:33;;;;;;;4.43;3.15;;;25.00;99.90;;;;;;5075566;28;20064;-60
2022/07/31 10:50:20;;;;;;;4.05;3.20;;;24.70;99.90;;;;;;5060918;28;20024;-61
2022/07/31 10:53:17;;;;;;;4.10;2.85;;;24.50;99.90;;;;;;5075783;28;20102;-63
2022/07/31 10:56:12;;;;;;;4.45;2.90;;;24.80;99.90;;;;;;5076526;28;20479;-62
2022/07/31 10:58:58;;;;;;;5.00;3.03;;;24.80;99.90;;;;;;5076163;28;20119;-62
2022/07/31 11:01:50;;;;;;;3.72;2.90;;;25.20;99.90;;;;;;5076858;28;20059;-62
2022/07/31 11:04:35;;;;;;;3.80;2.60;;;24.90;99.90;;;;;;5076667;28;20105;-61
2022/07/31 11:07:30;;;;;;;5.55;3.05;;;24.70;99.90;;;;;;5076253;28;20033;-62
2022/07/31 11:10:18;;;;;;;3.90;2.50;;;24.70;99.90;;;;;;5079682;28;20044;-63
2022/07/31 11:13:09;;;;;;;2.75;2.40;;;25.20;99.90;;;;;;5079644;28;20032;-61
2022/07/31 11:16:05;;;;;;;4.72;2.20;;;25.40;99.90;;;;;;5080562;28;20419;-63
2022/07/31 11:18:40;;;;;;;2.80;1.75;;;26.30;99.90;;;;;;5080080;28;20075;-64
2022/07/31 11:21:08;;;;;;;3.55;1.88;;;26.90;99.90;;;;;;5080674;28;20032;-62
2022/07/31 11:23:36;;;;;;;4.35;1.80;;;26.90;99.90;;;;;;5080056;28;20029;-63
2022/07/31 11:26:05;;;;;;;2.70;1.55;;;27.10;99.90;;;;;;5079967;28;20020;-62
2022/07/31 11:28:31;;;;;;;4.45;1.60;;;27.60;99.90;;;;;;5079855;28;20062;-62
2022/07/31 11:31:03;;;;;;;2.83;1.52;;;27.70;99.90;;;;;;5079829;28;20029;-62
2022/07/31 11:33:39;;;;;;;3.40;1.60;;;27.60;99.90;;;;;;5079760;28;20055;-64
2022/07/31 11:36:10;;;;;;;5.53;1.60;;;26.50;99.90;;;;;;5079100;28;20036;-62
2022/07/31 11:38:37;;;;;;;8.25;1.55;;;26.10;99.90;;;;;;5079771;28;20043;-63
2022/07/31 11:41:04;;;;;;;3.05;1.58;;;26.20;99.90;;;;;;5079001;28;20048;-65
2022/07/31 11:43:30;;;;;;;2.75;1.58;;;27.10;99.90;;;;;;5079564;28;20123;-62
2022/07/31 11:45:57;;;;;;;3.35;1.58;;;27.90;99.90;;;;;;5078943;28;20359;-63
2022/07/31 11:48:25;;;;;;;3.60;1.42;;;27.80;99.90;;;;;;5078778;28;20033;-66
2022/07/31 11:50:51;;;;;;;3.22;1.40;;;26.50;99.90;;;;;;5079411;28;20024;-63
2022/07/31 11:53:20;;;;;;;2.47;1.40;;;26.20;99.90;;;;;;5079314;28;20060;-64
2022/07/31 11:55:53;;;;;;;2.35;1.40;;;26.70;99.90;;;;;;5079369;28;20040;-65
2022/07/31 11:58:20;;;;;;;4.22;1.38;;;26.70;99.90;;;;;;5079122;28;20076;-63
2022/07/31 12:00:50;;;;;;;2.83;1.20;;;26.60;99.90;;;;;;5079311;28;20094;-64
2022/07/31 12:03:21;;;;;;;4.28;1.48;;;27.00;99.90;;;;;;5079169;28;20064;-63
2022/07/31 12:05:51;;;;;;;3.83;1.30;;;27.00;99.90;;;;;;5079190;28;20029;-62
2022/07/31 12:08:18;;;;;;;2.53;1.40;;;26.90;99.90;;;;;;5078427;28;20288;-61
2022/07/31 12:10:45;;;;;;;1.48;1.25;;;27.00;99.90;;;;;;5078445;28;20028;-62
2022/07/31 12:13:16;;;;;;;2.20;1.30;;;26.50;99.90;;;;;;5079318;28;20048;-62
2022/07/31 12:16:03;;;;;;;2.13;1.27;;;26.20;99.90;;;;;;5079687;28;20037;-62
2022/07/31 12:18:45;;;;;;;2.92;1.50;;;25.90;99.90;;;;;;5079207;28;20025;-61
2022/07/31 12:21:11;;;;;;;;;;;25.80;99.90;;;;;;5078372;28;20039;-61
2022/07/31 12:23:49;;;;;;;3.65;1.40;;;25.90;99.90;;;;;;5078277;28;19904;-65
2022/07/31 12:26:27;;;;;;;2.17;1.02;;;26.20;99.90;;;;;;5078982;28;20025;-63
2022/07/31 12:29:00;;;;;;;3.40;1.17;;;25.80;99.90;;;;;;5078731;28;20037;-65
2022/07/31 12:31:28;;;;;;;1.73;1.20;;;25.70;99.90;;;;;;5079254;28;20131;-62
2022/07/31 12:33:53;;;;;;;2.08;1.33;;;25.70;99.90;;;;;;5078742;28;20345;-62
2022/07/31 12:36:20;;;;;;;2.03;1.30;;;26.00;99.90;;;;;;5077988;28;20079;-61
2022/07/31 12:38:57;;;;;;;1.83;0.80;;;26.10;99.90;;;;;;5078622;28;20040;-65
2022/07/31 12:41:23;;;;;;;1.45;0.93;;;26.70;99.90;;;;;;5079207;28;20034;-61
2022/07/31 12:43:49;;;;;;;2.03;1.02;;;27.10;99.90;;;;;;5078474;28;20059;-62
2022/07/31 12:46:15;;;;;;;2.55;0.88;;;27.70;99.90;;;;;;5077747;28;20032;-61
2022/07/31 12:48:40;;;;;;;1.88;0.90;;;28.20;99.90;;;;;;5077536;28;20059;-60
2022/07/31 12:51:06;;;;;;;1.90;0.90;;;28.80;99.90;;;;;;5078895;28;20040;-61
2022/07/31 12:53:32;;;;;;;2.80;0.98;;;29.40;99.90;;;;;;5078474;28;20450;-63
2022/07/31 12:55:58;;;;;;;1.15;0.70;;;29.20;99.90;;;;;;5078217;28;20029;-64
2022/07/31 12:58:24;;;;;;;1.35;1.00;;;29.80;99.90;;;;;;5077847;28;20144;-61
2022/07/31 13:00:50;;;;;;;2.95;0.95;;;29.60;99.90;;;;;;5078695;28;20293;-62
2022/07/31 13:03:15;;;;;;;1.55;0.80;;;29.00;99.90;;;;;;5078286;28;20029;-62
2022/07/31 13:05:41;;;;;;;2.35;0.98;;;27.60;99.90;;;;;;5077944;28;20081;-63
2022/07/31 13:08:07;;;;;;;1.63;0.90;;;28.00;99.90;;;;;;5077206;28;20021;-64